sensor_id;sensor_type;location;lat;lon;timestamp;P1;durP1;ratioP1;P2;durP2;ratioP2
17592;SDS011;8915;51.760;14.300;2023-04-06T00:01:16;6.57;;;5.13;;
17592;SDS011;8915;51.760;14.300;2023-04-06T00:03:43;5.33;;;4.57;;
17592;SDS011;8915;51.760;14.300;2023-04-06T00:06:10;10.73;;;5.50;;
17592;SDS011;8915;51.760;14.300;2023-04-06T00:08:36;7.53;;;5.07;;
17592;SDS011;8915;51.760;14.300;2023-04-06T00:11:02;5.97;;;4.67;;
17592;SDS011;8915;51.760;14.300;2023-04-06T00:13:28;8.27;;;4.80;;
17592;SDS011;8915;51.760;14.300;2023-04-06T00:15:54;8.27;;;4.83;;
17592;SDS011;8915;51.760;14.300;2023-04-06T00:18:21;6.43;;;4.73;;
17592;SDS011;8915;51.760;14.300;2023-04-06T00:20:49;10.10;;;5.60;;
17592;SDS011;8915;51.760;14.300;2023-04-06T00:23:16;10.57;;;4.97;;
17592;SDS011;8915;51.760;14.300;2023-04-06T00:25:42;7.60;;;5.27;;
17592;SDS011;8915;51.760;14.300;2023-04-06T00:28:08;7.50;;;5.37;;
17592;SDS011;8915;51.760;14.300;2023-04-06T00:30:35;7.03;;;5.37;;
17592;SDS011;8915;51.760;14.300;2023-04-06T00:33:01;16.13;;;5.50;;
17592;SDS011;8915;51.760;14.300;2023-04-06T00:35:31;5.97;;;5.37;;
17592;SDS011;8915;51.760;14.300;2023-04-06T00:37:59;6.40;;;4.90;;
17592;SDS011;8915;51.760;14.300;2023-04-06T00:40:25;11.60;;;5.47;;
17592;SDS011;8915;51.760;14.300;2023-04-06T00:42:53;6.47;;;5.33;;
17592;SDS011;8915;51.760;14.300;2023-04-06T00:45:20;8.10;;;4.57;;
17592;SDS011;8915;51.760;14.300;2023-04-06T00:47:47;8.03;;;5.30;;
17592;SDS011;8915;51.760;14.300;2023-04-06T00:50:13;8.03;;;5.50;;
17592;SDS011;8915;51.760;14.300;2023-04-06T00:52:40;8.37;;;5.47;;
17592;SDS011;8915;51.760;14.300;2023-04-06T00:55:09;6.13;;;4.87;;
17592;SDS011;8915;51.760;14.300;2023-04-06T00:57:40;10.77;;;5.07;;
17592;SDS011;8915;51.760;14.300;2023-04-06T01:00:06;7.23;;;5.30;;
17592;SDS011;8915;51.760;14.300;2023-04-06T01:02:34;11.13;;;6.00;;
17592;SDS011;8915;51.760;14.300;2023-04-06T01:05:02;7.53;;;5.73;;
17592;SDS011;8915;51.760;14.300;2023-04-06T01:07:36;8.23;;;5.10;;
17592;SDS011;8915;51.760;14.300;2023-04-06T01:10:09;8.90;;;5.43;;
17592;SDS011;8915;51.760;14.300;2023-04-06T01:12:36;10.20;;;5.97;;
17592;SDS011;8915;51.760;14.300;2023-04-06T01:15:08;10.43;;;6.20;;
17592;SDS011;8915;51.760;14.300;2023-04-06T01:17:38;7.40;;;5.63;;
17592;SDS011;8915;51.760;14.300;2023-04-06T01:20:10;6.93;;;5.07;;
17592;SDS011;8915;51.760;14.300;2023-04-06T01:22:38;8.43;;;5.67;;
17592;SDS011;8915;51.760;14.300;2023-04-06T01:25:05;7.00;;;5.23;;
17592;SDS011;8915;51.760;14.300;2023-04-06T01:27:44;6.80;;;5.10;;
17592;SDS011;8915;51.760;14.300;2023-04-06T01:30:11;7.37;;;5.67;;
17592;SDS011;8915;51.760;14.300;2023-04-06T01:32:56;8.87;;;5.67;;
17592;SDS011;8915;51.760;14.300;2023-04-06T01:35:49;7.67;;;5.27;;
17592;SDS011;8915;51.760;14.300;2023-04-06T01:38:20;8.67;;;5.63;;
17592;SDS011;8915;51.760;14.300;2023-04-06T01:40:47;10.53;;;6.37;;
17592;SDS011;8915;51.760;14.300;2023-04-06T01:43:16;8.43;;;6.10;;
17592;SDS011;8915;51.760;14.300;2023-04-06T01:45:56;9.30;;;6.20;;
17592;SDS011;8915;51.760;14.300;2023-04-06T01:48:28;7.87;;;5.67;;
17592;SDS011;8915;51.760;14.300;2023-04-06T01:50:54;10.40;;;6.43;;
17592;SDS011;8915;51.760;14.300;2023-04-06T01:53:28;7.93;;;5.57;;
17592;SDS011;8915;51.760;14.300;2023-04-06T01:56:00;7.73;;;5.20;;
17592;SDS011;8915;51.760;14.300;2023-04-06T01:58:38;10.23;;;5.50;;
17592;SDS011;8915;51.760;14.300;2023-04-06T02:01:05;9.13;;;5.60;;
17592;SDS011;8915;51.760;14.300;2023-04-06T02:03:44;7.70;;;5.30;;
17592;SDS011;8915;51.760;14.300;2023-04-06T02:06:11;7.13;;;5.03;;
17592;SDS011;8915;51.760;14.300;2023-04-06T02:08:40;8.33;;;5.83;;
17592;SDS011;8915;51.760;14.300;2023-04-06T02:11:06;9.60;;;5.57;;
17592;SDS011;8915;51.760;14.300;2023-04-06T02:13:39;9.70;;;6.10;;
17592;SDS011;8915;51.760;14.300;2023-04-06T02:16:05;8.03;;;5.93;;
17592;SDS011;8915;51.760;14.300;2023-04-06T02:18:32;10.83;;;6.67;;
17592;SDS011;8915;51.760;14.300;2023-04-06T02:21:00;7.70;;;5.90;;
17592;SDS011;8915;51.760;14.300;2023-04-06T02:23:27;7.73;;;5.83;;
17592;SDS011;8915;51.760;14.300;2023-04-06T02:25:57;9.60;;;6.53;;
17592;SDS011;8915;51.760;14.300;2023-04-06T02:28:23;7.90;;;5.70;;
17592;SDS011;8915;51.760;14.300;2023-04-06T02:30:49;8.60;;;5.77;;
17592;SDS011;8915;51.760;14.300;2023-04-06T02:33:16;11.37;;;6.93;;
17592;SDS011;8915;51.760;14.300;2023-04-06T02:35:45;9.20;;;6.43;;
17592;SDS011;8915;51.760;14.300;2023-04-06T02:38:11;8.13;;;5.73;;
17592;SDS011;8915;51.760;14.300;2023-04-06T02:40:37;10.43;;;6.70;;
17592;SDS011;8915;51.760;14.300;2023-04-06T02:43:26;7.93;;;5.60;;
17592;SDS011;8915;51.760;14.300;2023-04-06T02:46:01;8.33;;;5.70;;
17592;SDS011;8915;51.760;14.300;2023-04-06T02:48:28;9.17;;;5.40;;
17592;SDS011;8915;51.760;14.300;2023-04-06T02:50:55;9.23;;;6.67;;
17592;SDS011;8915;51.760;14.300;2023-04-06T02:53:21;9.03;;;5.63;;
17592;SDS011;8915;51.760;14.300;2023-04-06T02:55:48;7.70;;;6.10;;
17592;SDS011;8915;51.760;14.300;2023-04-06T02:58:14;10.07;;;5.83;;
17592;SDS011;8915;51.760;14.300;2023-04-06T03:00:48;9.83;;;5.40;;
17592;SDS011;8915;51.760;14.300;2023-04-06T03:03:15;13.57;;;6.27;;
17592;SDS011;8915;51.760;14.300;2023-04-06T03:05:43;10.03;;;6.60;;
17592;SDS011;8915;51.760;14.300;2023-04-06T03:08:09;8.60;;;6.00;;
17592;SDS011;8915;51.760;14.300;2023-04-06T03:10:42;10.53;;;6.67;;
17592;SDS011;8915;51.760;14.300;2023-04-06T03:13:08;11.93;;;6.80;;
17592;SDS011;8915;51.760;14.300;2023-04-06T03:15:48;9.53;;;6.10;;
17592;SDS011;8915;51.760;14.300;2023-04-06T03:18:20;10.43;;;6.57;;
17592;SDS011;8915;51.760;14.300;2023-04-06T03:20:47;9.23;;;6.50;;
17592;SDS011;8915;51.760;14.300;2023-04-06T03:23:15;10.43;;;6.27;;
17592;SDS011;8915;51.760;14.300;2023-04-06T03:25:43;9.47;;;6.40;;
17592;SDS011;8915;51.760;14.300;2023-04-06T03:28:13;9.73;;;6.30;;
17592;SDS011;8915;51.760;14.300;2023-04-06T03:30:49;11.47;;;6.20;;
17592;SDS011;8915;51.760;14.300;2023-04-06T03:33:22;8.70;;;6.13;;
17592;SDS011;8915;51.760;14.300;2023-04-06T03:35:52;14.10;;;6.90;;
17592;SDS011;8915;51.760;14.300;2023-04-06T03:38:19;11.77;;;7.40;;
17592;SDS011;8915;51.760;14.300;2023-04-06T03:40:46;12.67;;;8.20;;
17592;SDS011;8915;51.760;14.300;2023-04-06T03:43:12;16.03;;;9.27;;
17592;SDS011;8915;51.760;14.300;2023-04-06T03:45:39;10.53;;;6.97;;
17592;SDS011;8915;51.760;14.300;2023-04-06T03:48:07;14.27;;;6.97;;
17592;SDS011;8915;51.760;14.300;2023-04-06T03:50:35;13.80;;;8.33;;
17592;SDS011;8915;51.760;14.300;2023-04-06T03:53:02;14.00;;;7.97;;
17592;SDS011;8915;51.760;14.300;2023-04-06T03:55:32;10.17;;;6.60;;
17592;SDS011;8915;51.760;14.300;2023-04-06T03:57:59;11.20;;;6.50;;
17592;SDS011;8915;51.760;14.300;2023-04-06T04:00:25;12.63;;;6.60;;
17592;SDS011;8915;51.760;14.300;2023-04-06T04:02:54;9.70;;;6.37;;
17592;SDS011;8915;51.760;14.300;2023-04-06T04:05:21;8.00;;;5.60;;
17592;SDS011;8915;51.760;14.300;2023-04-06T04:07:50;11.43;;;6.27;;
17592;SDS011;8915;51.760;14.300;2023-04-06T04:10:17;12.20;;;6.57;;
17592;SDS011;8915;51.760;14.300;2023-04-06T04:12:44;12.27;;;7.03;;
17592;SDS011;8915;51.760;14.300;2023-04-06T04:15:10;8.33;;;6.23;;
17592;SDS011;8915;51.760;14.300;2023-04-06T04:17:36;11.27;;;6.40;;
17592;SDS011;8915;51.760;14.300;2023-04-06T04:20:04;10.60;;;6.20;;
17592;SDS011;8915;51.760;14.300;2023-04-06T04:22:32;9.23;;;6.00;;
17592;SDS011;8915;51.760;14.300;2023-04-06T04:24:58;10.73;;;6.37;;
17592;SDS011;8915;51.760;14.300;2023-04-06T04:27:26;9.10;;;5.63;;
17592;SDS011;8915;51.760;14.300;2023-04-06T04:29:52;10.57;;;6.30;;
17592;SDS011;8915;51.760;14.300;2023-04-06T04:32:19;10.80;;;6.43;;
17592;SDS011;8915;51.760;14.300;2023-04-06T04:34:45;11.17;;;6.83;;
17592;SDS011;8915;51.760;14.300;2023-04-06T04:37:21;7.60;;;5.80;;
17592;SDS011;8915;51.760;14.300;2023-04-06T04:39:53;8.07;;;5.97;;
17592;SDS011;8915;51.760;14.300;2023-04-06T04:42:19;8.47;;;5.40;;
17592;SDS011;8915;51.760;14.300;2023-04-06T04:44:50;9.97;;;6.60;;
17592;SDS011;8915;51.760;14.300;2023-04-06T04:47:27;11.20;;;6.93;;
17592;SDS011;8915;51.760;14.300;2023-04-06T04:49:55;12.47;;;7.20;;
17592;SDS011;8915;51.760;14.300;2023-04-06T04:52:23;9.07;;;6.47;;
17592;SDS011;8915;51.760;14.300;2023-04-06T04:54:58;10.30;;;6.87;;
17592;SDS011;8915;51.760;14.300;2023-04-06T04:57:27;10.63;;;6.80;;
17592;SDS011;8915;51.760;14.300;2023-04-06T04:59:53;6.83;;;5.60;;
17592;SDS011;8915;51.760;14.300;2023-04-06T05:02:21;10.20;;;6.97;;
17592;SDS011;8915;51.760;14.300;2023-04-06T05:04:55;10.33;;;6.70;;
17592;SDS011;8915;51.760;14.300;2023-04-06T05:07:24;13.43;;;7.00;;
17592;SDS011;8915;51.760;14.300;2023-04-06T05:09:53;15.43;;;8.07;;
17592;SDS011;8915;51.760;14.300;2023-04-06T05:12:24;13.47;;;7.00;;
17592;SDS011;8915;51.760;14.300;2023-04-06T05:15:02;11.20;;;7.17;;
17592;SDS011;8915;51.760;14.300;2023-04-06T05:17:28;14.50;;;6.77;;
17592;SDS011;8915;51.760;14.300;2023-04-06T05:19:55;10.20;;;7.83;;
17592;SDS011;8915;51.760;14.300;2023-04-06T05:22:24;12.43;;;7.83;;
17592;SDS011;8915;51.760;14.300;2023-04-06T05:25:01;10.03;;;7.43;;
17592;SDS011;8915;51.760;14.300;2023-04-06T05:27:29;12.17;;;8.13;;
17592;SDS011;8915;51.760;14.300;2023-04-06T05:29:56;17.67;;;8.53;;
17592;SDS011;8915;51.760;14.300;2023-04-06T05:32:24;12.17;;;8.40;;
17592;SDS011;8915;51.760;14.300;2023-04-06T05:34:51;17.33;;;9.67;;
17592;SDS011;8915;51.760;14.300;2023-04-06T05:37:17;13.00;;;8.90;;
17592;SDS011;8915;51.760;14.300;2023-04-06T05:39:43;13.00;;;8.20;;
17592;SDS011;8915;51.760;14.300;2023-04-06T05:42:10;12.80;;;8.60;;
17592;SDS011;8915;51.760;14.300;2023-04-06T05:44:50;12.17;;;7.97;;
17592;SDS011;8915;51.760;14.300;2023-04-06T05:47:17;11.67;;;8.33;;
17592;SDS011;8915;51.760;14.300;2023-04-06T05:49:48;11.43;;;7.97;;
17592;SDS011;8915;51.760;14.300;2023-04-06T05:52:22;10.37;;;7.43;;
17592;SDS011;8915;51.760;14.300;2023-04-06T05:54:49;12.70;;;7.33;;
17592;SDS011;8915;51.760;14.300;2023-04-06T05:57:15;13.17;;;7.47;;
17592;SDS011;8915;51.760;14.300;2023-04-06T05:59:42;11.77;;;6.80;;
17592;SDS011;8915;51.760;14.300;2023-04-06T06:02:12;9.30;;;6.30;;
17592;SDS011;8915;51.760;14.300;2023-04-06T06:04:46;9.60;;;6.27;;
17592;SDS011;8915;51.760;14.300;2023-04-06T06:07:13;8.67;;;6.53;;
17592;SDS011;8915;51.760;14.300;2023-04-06T06:09:44;10.20;;;7.00;;
17592;SDS011;8915;51.760;14.300;2023-04-06T06:12:24;13.37;;;6.47;;
17592;SDS011;8915;51.760;14.300;2023-04-06T06:14:51;14.23;;;6.17;;
17592;SDS011;8915;51.760;14.300;2023-04-06T06:17:20;11.27;;;6.63;;
17592;SDS011;8915;51.760;14.300;2023-04-06T06:19:47;9.23;;;5.87;;
17592;SDS011;8915;51.760;14.300;2023-04-06T06:22:14;8.43;;;6.03;;
17592;SDS011;8915;51.760;14.300;2023-04-06T06:24:44;8.20;;;6.17;;
17592;SDS011;8915;51.760;14.300;2023-04-06T06:27:11;8.37;;;6.03;;
17592;SDS011;8915;51.760;14.300;2023-04-06T06:29:38;7.17;;;5.23;;
17592;SDS011;8915;51.760;14.300;2023-04-06T06:32:04;15.90;;;6.43;;
17592;SDS011;8915;51.760;14.300;2023-04-06T06:34:32;7.90;;;5.43;;
17592;SDS011;8915;51.760;14.300;2023-04-06T06:37:02;8.83;;;5.20;;
17592;SDS011;8915;51.760;14.300;2023-04-06T06:39:28;10.93;;;5.67;;
17592;SDS011;8915;51.760;14.300;2023-04-06T06:41:54;7.30;;;5.43;;
17592;SDS011;8915;51.760;14.300;2023-04-06T06:44:39;10.97;;;5.77;;
17592;SDS011;8915;51.760;14.300;2023-04-06T06:47:05;5.73;;;4.47;;
17592;SDS011;8915;51.760;14.300;2023-04-06T06:49:33;7.07;;;4.70;;
17592;SDS011;8915;51.760;14.300;2023-04-06T06:51:59;6.00;;;4.60;;
17592;SDS011;8915;51.760;14.300;2023-04-06T06:54:25;10.30;;;4.50;;
17592;SDS011;8915;51.760;14.300;2023-04-06T06:56:52;8.97;;;4.50;;
17592;SDS011;8915;51.760;14.300;2023-04-06T06:59:19;7.73;;;4.63;;
17592;SDS011;8915;51.760;14.300;2023-04-06T07:01:46;6.63;;;4.53;;
17592;SDS011;8915;51.760;14.300;2023-04-06T07:04:12;6.20;;;4.90;;
17592;SDS011;8915;51.760;14.300;2023-04-06T07:06:40;8.30;;;3.90;;
17592;SDS011;8915;51.760;14.300;2023-04-06T07:09:06;7.13;;;4.10;;
17592;SDS011;8915;51.760;14.300;2023-04-06T07:11:32;8.03;;;4.60;;
17592;SDS011;8915;51.760;14.300;2023-04-06T07:13:58;8.83;;;4.37;;
17592;SDS011;8915;51.760;14.300;2023-04-06T07:16:25;4.93;;;3.97;;
17592;SDS011;8915;51.760;14.300;2023-04-06T07:18:53;6.10;;;4.00;;
17592;SDS011;8915;51.760;14.300;2023-04-06T07:21:20;5.67;;;4.03;;
17592;SDS011;8915;51.760;14.300;2023-04-06T07:23:47;7.73;;;3.93;;
17592;SDS011;8915;51.760;14.300;2023-04-06T07:26:16;7.20;;;3.93;;
17592;SDS011;8915;51.760;14.300;2023-04-06T07:28:42;4.57;;;3.00;;
17592;SDS011;8915;51.760;14.300;2023-04-06T07:31:09;7.30;;;4.07;;
17592;SDS011;8915;51.760;14.300;2023-04-06T07:33:36;8.53;;;4.03;;
17592;SDS011;8915;51.760;14.300;2023-04-06T07:36:02;5.43;;;3.60;;
17592;SDS011;8915;51.760;14.300;2023-04-06T07:38:29;4.90;;;3.80;;
17592;SDS011;8915;51.760;14.300;2023-04-06T07:40:56;7.20;;;4.57;;
17592;SDS011;8915;51.760;14.300;2023-04-06T07:43:23;6.67;;;3.97;;
17592;SDS011;8915;51.760;14.300;2023-04-06T07:45:50;6.07;;;4.27;;
17592;SDS011;8915;51.760;14.300;2023-04-06T07:48:17;8.33;;;4.20;;
17592;SDS011;8915;51.760;14.300;2023-04-06T07:50:43;5.00;;;3.60;;
17592;SDS011;8915;51.760;14.300;2023-04-06T07:53:10;8.33;;;4.03;;
17592;SDS011;8915;51.760;14.300;2023-04-06T07:55:38;4.17;;;3.53;;
17592;SDS011;8915;51.760;14.300;2023-04-06T07:58:05;6.07;;;3.53;;
17592;SDS011;8915;51.760;14.300;2023-04-06T08:00:32;5.00;;;3.67;;
17592;SDS011;8915;51.760;14.300;2023-04-06T08:02:58;4.43;;;3.17;;
17592;SDS011;8915;51.760;14.300;2023-04-06T08:05:24;5.37;;;3.10;;
17592;SDS011;8915;51.760;14.300;2023-04-06T08:07:51;4.93;;;3.33;;
17592;SDS011;8915;51.760;14.300;2023-04-06T08:10:17;4.10;;;2.83;;
17592;SDS011;8915;51.760;14.300;2023-04-06T08:12:43;5.03;;;3.20;;
17592;SDS011;8915;51.760;14.300;2023-04-06T08:15:11;5.07;;;2.90;;
17592;SDS011;8915;51.760;14.300;2023-04-06T08:17:37;4.03;;;2.90;;
17592;SDS011;8915;51.760;14.300;2023-04-06T08:20:04;3.40;;;2.37;;
17592;SDS011;8915;51.760;14.300;2023-04-06T08:22:30;2.73;;;2.03;;
17592;SDS011;8915;51.760;14.300;2023-04-06T08:24:56;3.17;;;2.30;;
17592;SDS011;8915;51.760;14.300;2023-04-06T08:27:23;3.67;;;2.67;;
17592;SDS011;8915;51.760;14.300;2023-04-06T08:29:49;3.30;;;2.47;;
17592;SDS011;8915;51.760;14.300;2023-04-06T08:32:17;3.27;;;2.50;;
17592;SDS011;8915;51.760;14.300;2023-04-06T08:34:43;5.27;;;2.70;;
17592;SDS011;8915;51.760;14.300;2023-04-06T08:37:09;5.87;;;2.13;;
17592;SDS011;8915;51.760;14.300;2023-04-06T08:39:35;1.80;;;1.57;;
17592;SDS011;8915;51.760;14.300;2023-04-06T08:42:02;2.47;;;1.70;;
17592;SDS011;8915;51.760;14.300;2023-04-06T08:44:28;1.80;;;1.67;;
17592;SDS011;8915;51.760;14.300;2023-04-06T08:46:55;1.93;;;1.53;;
17592;SDS011;8915;51.760;14.300;2023-04-06T08:49:22;1.43;;;1.30;;
17592;SDS011;8915;51.760;14.300;2023-04-06T08:51:49;3.73;;;1.80;;
17592;SDS011;8915;51.760;14.300;2023-04-06T08:54:15;1.67;;;1.27;;
17592;SDS011;8915;51.760;14.300;2023-04-06T08:56:41;2.57;;;1.70;;
17592;SDS011;8915;51.760;14.300;2023-04-06T08:59:08;2.27;;;1.90;;
17592;SDS011;8915;51.760;14.300;2023-04-06T09:01:36;2.53;;;1.67;;
17592;SDS011;8915;51.760;14.300;2023-04-06T09:04:06;1.83;;;1.50;;
17592;SDS011;8915;51.760;14.300;2023-04-06T09:06:35;3.00;;;1.77;;
17592;SDS011;8915;51.760;14.300;2023-04-06T09:09:02;4.07;;;2.13;;
17592;SDS011;8915;51.760;14.300;2023-04-06T09:11:29;3.40;;;2.17;;
17592;SDS011;8915;51.760;14.300;2023-04-06T09:13:55;2.20;;;2.00;;
17592;SDS011;8915;51.760;14.300;2023-04-06T09:16:22;3.53;;;2.20;;
17592;SDS011;8915;51.760;14.300;2023-04-06T09:18:49;2.53;;;1.97;;
17592;SDS011;8915;51.760;14.300;2023-04-06T09:21:16;2.83;;;1.90;;
17592;SDS011;8915;51.760;14.300;2023-04-06T09:23:44;2.03;;;1.83;;
17592;SDS011;8915;51.760;14.300;2023-04-06T09:26:10;4.03;;;1.97;;
17592;SDS011;8915;51.760;14.300;2023-04-06T09:28:41;2.60;;;1.90;;
17592;SDS011;8915;51.760;14.300;2023-04-06T09:31:07;2.57;;;2.00;;
17592;SDS011;8915;51.760;14.300;2023-04-06T09:33:37;4.17;;;2.30;;
17592;SDS011;8915;51.760;14.300;2023-04-06T09:36:04;3.97;;;2.17;;
17592;SDS011;8915;51.760;14.300;2023-04-06T09:38:31;4.57;;;1.93;;
17592;SDS011;8915;51.760;14.300;2023-04-06T09:40:59;4.47;;;1.70;;
17592;SDS011;8915;51.760;14.300;2023-04-06T09:43:25;3.23;;;2.00;;
17592;SDS011;8915;51.760;14.300;2023-04-06T09:45:52;2.23;;;1.80;;
17592;SDS011;8915;51.760;14.300;2023-04-06T09:48:19;2.70;;;1.93;;
17592;SDS011;8915;51.760;14.300;2023-04-06T09:50:46;2.47;;;1.83;;
17592;SDS011;8915;51.760;14.300;2023-04-06T09:53:12;2.80;;;1.87;;
17592;SDS011;8915;51.760;14.300;2023-04-06T09:55:40;3.40;;;2.10;;
17592;SDS011;8915;51.760;14.300;2023-04-06T09:58:09;2.77;;;2.07;;
17592;SDS011;8915;51.760;14.300;2023-04-06T10:00:40;2.57;;;2.17;;
17592;SDS011;8915;51.760;14.300;2023-04-06T10:03:11;2.57;;;2.20;;
17592;SDS011;8915;51.760;14.300;2023-04-06T10:05:42;2.90;;;2.30;;
17592;SDS011;8915;51.760;14.300;2023-04-06T10:08:10;3.50;;;2.13;;
17592;SDS011;8915;51.760;14.300;2023-04-06T10:10:36;2.90;;;2.37;;
17592;SDS011;8915;51.760;14.300;2023-04-06T10:13:03;4.07;;;2.40;;
17592;SDS011;8915;51.760;14.300;2023-04-06T10:15:31;2.83;;;2.10;;
17592;SDS011;8915;51.760;14.300;2023-04-06T10:17:58;4.20;;;2.77;;
17592;SDS011;8915;51.760;14.300;2023-04-06T10:20:26;3.03;;;2.57;;
17592;SDS011;8915;51.760;14.300;2023-04-06T10:22:55;4.20;;;2.57;;
17592;SDS011;8915;51.760;14.300;2023-04-06T10:25:28;2.77;;;2.57;;
17592;SDS011;8915;51.760;14.300;2023-04-06T10:28:01;2.63;;;2.37;;
17592;SDS011;8915;51.760;14.300;2023-04-06T10:30:27;4.13;;;2.40;;
17592;SDS011;8915;51.760;14.300;2023-04-06T10:32:55;2.80;;;2.50;;
17592;SDS011;8915;51.760;14.300;2023-04-06T10:35:21;2.53;;;2.27;;
17592;SDS011;8915;51.760;14.300;2023-04-06T10:37:52;4.80;;;2.67;;
17592;SDS011;8915;51.760;14.300;2023-04-06T10:40:19;6.03;;;2.53;;
17592;SDS011;8915;51.760;14.300;2023-04-06T10:42:45;6.10;;;3.20;;
17592;SDS011;8915;51.760;14.300;2023-04-06T10:45:18;2.67;;;2.37;;
17592;SDS011;8915;51.760;14.300;2023-04-06T10:47:45;3.40;;;2.43;;
17592;SDS011;8915;51.760;14.300;2023-04-06T10:50:12;2.50;;;2.30;;
17592;SDS011;8915;51.760;14.300;2023-04-06T10:52:40;2.97;;;2.37;;
17592;SDS011;8915;51.760;14.300;2023-04-06T10:55:07;2.07;;;1.87;;
17592;SDS011;8915;51.760;14.300;2023-04-06T10:57:34;3.10;;;2.33;;
17592;SDS011;8915;51.760;14.300;2023-04-06T11:00:02;4.67;;;4.10;;
17592;SDS011;8915;51.760;14.300;2023-04-06T11:02:29;2.80;;;2.50;;
17592;SDS011;8915;51.760;14.300;2023-04-06T11:04:56;3.20;;;2.40;;
17592;SDS011;8915;51.760;14.300;2023-04-06T11:07:24;3.20;;;2.50;;
17592;SDS011;8915;51.760;14.300;2023-04-06T11:09:51;2.67;;;2.17;;
17592;SDS011;8915;51.760;14.300;2023-04-06T11:12:21;3.63;;;2.23;;
17592;SDS011;8915;51.760;14.300;2023-04-06T11:14:52;3.50;;;2.10;;
17592;SDS011;8915;51.760;14.300;2023-04-06T11:17:24;4.47;;;2.50;;
17592;SDS011;8915;51.760;14.300;2023-04-06T11:19:51;3.10;;;2.50;;
17592;SDS011;8915;51.760;14.300;2023-04-06T11:22:17;2.40;;;2.10;;
17592;SDS011;8915;51.760;14.300;2023-04-06T11:24:45;2.77;;;2.00;;
17592;SDS011;8915;51.760;14.300;2023-04-06T11:27:11;2.37;;;1.93;;
17592;SDS011;8915;51.760;14.300;2023-04-06T11:29:37;2.43;;;2.23;;
17592;SDS011;8915;51.760;14.300;2023-04-06T11:32:06;3.97;;;2.27;;
17592;SDS011;8915;51.760;14.300;2023-04-06T11:34:33;2.63;;;2.33;;
17592;SDS011;8915;51.760;14.300;2023-04-06T11:37:02;2.33;;;2.10;;
17592;SDS011;8915;51.760;14.300;2023-04-06T11:39:30;2.63;;;2.07;;
17592;SDS011;8915;51.760;14.300;2023-04-06T11:41:59;2.50;;;2.00;;
17592;SDS011;8915;51.760;14.300;2023-04-06T11:44:31;2.40;;;2.20;;
17592;SDS011;8915;51.760;14.300;2023-04-06T11:46:57;4.93;;;2.20;;
17592;SDS011;8915;51.760;14.300;2023-04-06T11:49:26;6.97;;;1.90;;
17592;SDS011;8915;51.760;14.300;2023-04-06T11:51:52;2.57;;;1.97;;
17592;SDS011;8915;51.760;14.300;2023-04-06T11:54:28;2.67;;;2.20;;
17592;SDS011;8915;51.760;14.300;2023-04-06T11:56:55;3.03;;;2.13;;
17592;SDS011;8915;51.760;14.300;2023-04-06T11:59:22;3.83;;;2.33;;
17592;SDS011;8915;51.760;14.300;2023-04-06T12:01:49;3.07;;;2.23;;
17592;SDS011;8915;51.760;14.300;2023-04-06T12:04:15;2.57;;;2.10;;
17592;SDS011;8915;51.760;14.300;2023-04-06T12:06:42;3.23;;;2.20;;
17592;SDS011;8915;51.760;14.300;2023-04-06T12:09:09;3.30;;;2.33;;
17592;SDS011;8915;51.760;14.300;2023-04-06T12:11:35;3.90;;;2.00;;
17592;SDS011;8915;51.760;14.300;2023-04-06T12:14:01;3.43;;;2.43;;
17592;SDS011;8915;51.760;14.300;2023-04-06T12:16:31;2.97;;;2.10;;
17592;SDS011;8915;51.760;14.300;2023-04-06T12:18:57;2.10;;;1.90;;
17592;SDS011;8915;51.760;14.300;2023-04-06T12:21:23;3.90;;;2.43;;
17592;SDS011;8915;51.760;14.300;2023-04-06T12:23:49;2.77;;;2.30;;
17592;SDS011;8915;51.760;14.300;2023-04-06T12:26:16;2.50;;;2.20;;
17592;SDS011;8915;51.760;14.300;2023-04-06T12:28:42;2.63;;;2.10;;
17592;SDS011;8915;51.760;14.300;2023-04-06T12:31:14;2.63;;;2.10;;
17592;SDS011;8915;51.760;14.300;2023-04-06T12:33:41;3.13;;;2.33;;
17592;SDS011;8915;51.760;14.300;2023-04-06T12:36:11;3.37;;;2.37;;
17592;SDS011;8915;51.760;14.300;2023-04-06T12:38:37;2.97;;;2.00;;
17592;SDS011;8915;51.760;14.300;2023-04-06T12:41:04;4.77;;;2.13;;
17592;SDS011;8915;51.760;14.300;2023-04-06T12:43:31;2.17;;;1.70;;
17592;SDS011;8915;51.760;14.300;2023-04-06T12:45:57;2.87;;;2.43;;
17592;SDS011;8915;51.760;14.300;2023-04-06T12:48:24;2.57;;;2.17;;
17592;SDS011;8915;51.760;14.300;2023-04-06T12:50:57;2.50;;;2.30;;
17592;SDS011;8915;51.760;14.300;2023-04-06T12:53:23;2.20;;;2.00;;
17592;SDS011;8915;51.760;14.300;2023-04-06T12:55:49;2.73;;;2.10;;
17592;SDS011;8915;51.760;14.300;2023-04-06T12:58:16;3.53;;;2.20;;
17592;SDS011;8915;51.760;14.300;2023-04-06T13:00:43;2.90;;;2.60;;
17592;SDS011;8915;51.760;14.300;2023-04-06T13:03:09;2.37;;;2.00;;
17592;SDS011;8915;51.760;14.300;2023-04-06T13:05:43;2.90;;;2.27;;
17592;SDS011;8915;51.760;14.300;2023-04-06T13:08:10;3.03;;;2.50;;
17592;SDS011;8915;51.760;14.300;2023-04-06T13:10:37;2.43;;;2.00;;
17592;SDS011;8915;51.760;14.300;2023-04-06T13:13:03;3.27;;;2.17;;
17592;SDS011;8915;51.760;14.300;2023-04-06T13:15:29;2.20;;;2.00;;
17592;SDS011;8915;51.760;14.300;2023-04-06T13:17:57;5.47;;;2.30;;
17592;SDS011;8915;51.760;14.300;2023-04-06T13:22:12;3.23;;;2.50;;
17592;SDS011;8915;51.760;14.300;2023-04-06T13:24:38;2.97;;;2.23;;
17592;SDS011;8915;51.760;14.300;2023-04-06T13:27:04;3.90;;;2.17;;
17592;SDS011;8915;51.760;14.300;2023-04-06T13:29:31;2.33;;;2.13;;
17592;SDS011;8915;51.760;14.300;2023-04-06T13:31:57;3.20;;;2.43;;
17592;SDS011;8915;51.760;14.300;2023-04-06T13:34:24;2.37;;;2.10;;
17592;SDS011;8915;51.760;14.300;2023-04-06T13:36:51;2.63;;;2.30;;
17592;SDS011;8915;51.760;14.300;2023-04-06T13:39:18;2.83;;;2.30;;
17592;SDS011;8915;51.760;14.300;2023-04-06T13:42:34;3.03;;;2.50;;
17592;SDS011;8915;51.760;14.300;2023-04-06T13:45:02;2.87;;;1.77;;
17592;SDS011;8915;51.760;14.300;2023-04-06T13:47:28;2.37;;;2.10;;
17592;SDS011;8915;51.760;14.300;2023-04-06T13:49:54;3.63;;;2.13;;
17592;SDS011;8915;51.760;14.300;2023-04-06T13:52:21;3.30;;;2.13;;
17592;SDS011;8915;51.760;14.300;2023-04-06T13:54:48;2.60;;;2.40;;
17592;SDS011;8915;51.760;14.300;2023-04-06T13:57:14;3.63;;;2.37;;
17592;SDS011;8915;51.760;14.300;2023-04-06T13:59:42;3.10;;;2.00;;
17592;SDS011;8915;51.760;14.300;2023-04-06T14:02:09;2.80;;;2.50;;
17592;SDS011;8915;51.760;14.300;2023-04-06T14:04:36;3.37;;;2.70;;
17592;SDS011;8915;51.760;14.300;2023-04-06T14:07:03;3.47;;;3.00;;
17592;SDS011;8915;51.760;14.300;2023-04-06T14:09:32;2.60;;;2.40;;
17592;SDS011;8915;51.760;14.300;2023-04-06T14:11:58;3.50;;;2.60;;
17592;SDS011;8915;51.760;14.300;2023-04-06T14:14:24;3.57;;;2.77;;
17592;SDS011;8915;51.760;14.300;2023-04-06T14:16:52;2.30;;;2.10;;
17592;SDS011;8915;51.760;14.300;2023-04-06T14:19:19;6.00;;;2.20;;
17592;SDS011;8915;51.760;14.300;2023-04-06T14:21:46;3.00;;;2.37;;
17592;SDS011;8915;51.760;14.300;2023-04-06T14:24:13;3.47;;;2.60;;
17592;SDS011;8915;51.760;14.300;2023-04-06T14:26:40;2.70;;;2.50;;
17592;SDS011;8915;51.760;14.300;2023-04-06T14:29:07;3.87;;;2.67;;
17592;SDS011;8915;51.760;14.300;2023-04-06T14:31:34;4.50;;;2.30;;
17592;SDS011;8915;51.760;14.300;2023-04-06T14:34:03;3.20;;;2.50;;
17592;SDS011;8915;51.760;14.300;2023-04-06T14:36:30;2.83;;;2.50;;
17592;SDS011;8915;51.760;14.300;2023-04-06T14:39:01;3.60;;;2.57;;
17592;SDS011;8915;51.760;14.300;2023-04-06T14:41:27;3.20;;;2.90;;
17592;SDS011;8915;51.760;14.300;2023-04-06T14:43:53;2.93;;;2.40;;
17592;SDS011;8915;51.760;14.300;2023-04-06T14:46:20;2.90;;;2.57;;
17592;SDS011;8915;51.760;14.300;2023-04-06T14:48:46;3.63;;;2.93;;
17592;SDS011;8915;51.760;14.300;2023-04-06T14:51:14;3.67;;;3.00;;
17592;SDS011;8915;51.760;14.300;2023-04-06T14:53:41;3.93;;;2.93;;